Time;durP1;ratioP1;P1;durP2;ratioP2;P2;SDS_P1;SDS_P2;PMS_P1;PMS_P2;Temp;Humidity;BMP_temperature;BMP_pressure;BME280_temperature;BME280_humidity;BME280_pressure;Samples;Min_cycle;Max_cycle;Signal;HPM_P1;HPM_P2
2024/01/14 00:01:30;;;;;;;30.73;15.90;;;;;;;;;;10110110;29;20029;-80
2024/01/14 00:06:31;;;;;;;30.07;15.37;;;;;;;;;;10119738;29;20409;-85
2024/01/14 00:11:32;;;;;;;35.80;16.83;;;;;;;;;;10117218;29;20045;-84
2024/01/14 00:16:34;;;;;;;33.37;17.17;;;;;;;;;;10104856;29;20033;-80
2024/01/14 00:21:35;;;;;;;29.27;15.37;;;;;;;;;;10114251;29;20054;-80
2024/01/14 00:26:36;;;;;;;34.27;16.93;;;;;;;;;;10115478;29;20120;-80
2024/01/14 00:31:37;;;;;;;36.87;16.83;;;;;;;;;;10104509;29;20047;-81
2024/01/14 00:36:39;;;;;;;29.37;15.43;;;;;;;;;;10117406;29;20064;-80
2024/01/14 00:41:40;;;;;;;28.23;14.23;;;;;;;;;;10120735;29;20586;-81
2024/01/14 00:46:41;;;;;;;28.57;15.43;;;;;;;;;;10113048;29;20055;-81
2024/01/14 00:51:42;;;;;;;31.07;16.60;;;;;;;;;;10103540;29;20041;-83
2024/01/14 00:56:50;;;;;;;29.60;15.10;;;;;;;;;;10119495;29;20445;-83
2024/01/14 01:01:57;;;;;;;31.43;15.80;;;;;;;;;;10099163;29;20052;-82
2024/01/14 01:06:58;;;;;;;30.00;16.23;;;;;;;;;;10101043;29;20059;-81
2024/01/14 01:11:59;;;;;;;32.33;15.63;;;;;;;;;;10113198;29;20051;-80
2024/01/14 01:17:00;;;;;;;29.27;15.47;;;;;;;;;;10090031;29;20489;-84
2024/01/14 01:22:01;;;;;;;30.73;16.47;;;;;;;;;;10111225;29;20041;-80
2024/01/14 01:27:02;;;;;;;30.27;16.23;;;;;;;;;;10119407;29;20036;-81
2024/01/14 01:32:03;;;;;;;30.27;16.40;;;;;;;;;;10107633;29;20396;-81
2024/01/14 01:37:04;;;;;;;33.33;16.80;;;;;;;;;;10115886;29;20057;-80
2024/01/14 01:42:06;;;;;;;34.63;16.63;;;;;;;;;;10128023;29;20047;-81
2024/01/14 01:47:08;;;;;;;31.00;15.70;;;;;;;;;;10121297;29;20512;-80
2024/01/14 01:52:09;;;;;;;38.17;17.03;;;;;;;;;;10110287;29;20048;-80
2024/01/14 01:57:10;;;;;;;36.93;17.47;;;;;;;;;;10119626;29;20484;-80
2024/01/14 02:02:12;;;;;;;35.37;17.40;;;;;;;;;;10106119;29;20042;-80
2024/01/14 02:07:13;;;;;;;34.03;18.13;;;;;;;;;;10102813;29;20036;-81
2024/01/14 02:12:14;;;;;;;33.57;16.43;;;;;;;;;;10118405;29;20041;-80
2024/01/14 02:17:15;;;;;;;34.47;17.93;;;;;;;;;;10116703;29;20051;-81
2024/01/14 02:22:19;;;;;;;33.17;17.90;;;;;;;;;;10092638;29;20040;-83
2024/01/14 02:27:20;;;;;;;35.90;18.50;;;;;;;;;;10100998;29;20032;-83
2024/01/14 02:32:21;;;;;;;33.23;17.87;;;;;;;;;;10100334;29;20052;-83
2024/01/14 02:37:22;;;;;;;38.33;18.50;;;;;;;;;;10098820;29;20061;-82
2024/01/14 02:42:23;;;;;;;35.50;19.23;;;;;;;;;;10107207;29;20037;-84
2024/01/14 02:47:24;;;;;;;36.77;17.97;;;;;;;;;;10106000;23;20057;-81
2024/01/14 02:52:25;;;;;;;36.87;18.07;;;;;;;;;;10115624;29;20151;-82
2024/01/14 02:57:26;;;;;;;35.37;17.80;;;;;;;;;;10119794;29;20032;-83
2024/01/14 03:02:28;;;;;;;41.30;18.73;;;;;;;;;;10122094;29;20683;-81
2024/01/14 03:07:29;;;;;;;39.27;17.27;;;;;;;;;;10119143;29;20071;-81
2024/01/14 03:12:30;;;;;;;37.90;17.30;;;;;;;;;;10125004;29;20071;-84
2024/01/14 03:17:31;;;;;;;35.40;17.60;;;;;;;;;;10126938;29;20473;-83
2024/01/14 03:22:32;;;;;;;31.87;16.37;;;;;;;;;;10121424;29;20107;-82
2024/01/14 03:27:33;;;;;;;33.37;15.07;;;;;;;;;;10127225;29;20029;-83
2024/01/14 03:32:34;;;;;;;28.77;15.40;;;;;;;;;;10125270;29;20730;-82
2024/01/14 03:37:35;;;;;;;33.53;16.43;;;;;;;;;;10126505;29;20028;-82
2024/01/14 03:42:36;;;;;;;33.13;16.10;;;;;;;;;;10127107;29;20043;-82
2024/01/14 03:47:37;;;;;;;29.60;14.37;;;;;;;;;;10126705;29;20517;-82
2024/01/14 03:52:38;;;;;;;29.37;15.07;;;;;;;;;;10124062;29;20075;-81
2024/01/14 03:57:39;;;;;;;32.17;16.77;;;;;;;;;;10126210;29;20123;-84
2024/01/14 04:02:41;;;;;;;35.43;16.80;;;;;;;;;;10125070;29;20088;-82
2024/01/14 04:07:42;;;;;;;35.30;17.17;;;;;;;;;;10127325;29;20040;-82
2024/01/14 04:12:43;;;;;;;36.43;17.70;;;;;;;;;;10121138;29;20052;-82
2024/01/14 04:17:44;;;;;;;33.40;16.33;;;;;;;;;;10127103;29;20028;-82
2024/01/14 04:22:45;;;;;;;32.30;16.40;;;;;;;;;;10124769;29;20712;-82
2024/01/14 04:27:46;;;;;;;36.10;16.37;;;;;;;;;;10125228;29;20036;-82
2024/01/14 04:32:47;;;;;;;40.37;18.37;;;;;;;;;;10124751;29;20464;-81
2024/01/14 04:37:48;;;;;;;39.43;20.47;;;;;;;;;;10127537;29;20024;-82
2024/01/14 04:42:49;;;;;;;48.03;22.13;;;;;;;;;;10106819;29;20032;-82
2024/01/14 04:47:50;;;;;;;46.80;22.50;;;;;;;;;;10123116;29;20056;-82
2024/01/14 04:52:51;;;;;;;40.53;19.07;;;;;;;;;;10124528;29;20048;-83
2024/01/14 04:57:52;;;;;;;45.03;21.33;;;;;;;;;;10121190;29;20039;-81
2024/01/14 05:02:53;;;;;;;44.80;20.00;;;;;;;;;;10123397;29;20043;-80
2024/01/14 05:07:54;;;;;;;38.33;17.73;;;;;;;;;;10123410;29;20033;-82
2024/01/14 05:12:55;;;;;;;40.27;18.77;;;;;;;;;;10109628;29;20055;-82
2024/01/14 05:17:56;;;;;;;40.07;18.90;;;;;;;;;;10118121;29;20144;-83
2024/01/14 05:22:57;;;;;;;34.20;16.50;;;;;;;;;;10117776;29;20730;-83
2024/01/14 05:27:58;;;;;;;38.70;17.60;;;;;;;;;;10122060;29;20044;-82
2024/01/14 05:33:05;;;;;;;37.37;19.93;;;;;;;;;;10111775;29;20041;-83
2024/01/14 05:38:06;;;;;;;37.43;17.60;;;;;;;;;;10123031;29;20066;-81
2024/01/14 05:43:08;;;;;;;40.73;18.87;;;;;;;;;;10116846;29;20045;-81
2024/01/14 05:48:09;;;;;;;34.93;17.80;;;;;;;;;;10122123;29;20056;-81
2024/01/14 05:53:10;;;;;;;41.67;18.17;;;;;;;;;;10116674;29;20477;-81
2024/01/14 05:58:11;;;;;;;38.77;18.80;;;;;;;;;;10112639;29;20032;-82
2024/01/14 06:03:12;;;;;;;34.40;15.83;;;;;;;;;;10115564;29;20041;-81
2024/01/14 06:08:13;;;;;;;34.00;16.60;;;;;;;;;;10102669;29;20040;-81
2024/01/14 06:13:14;;;;;;;33.27;16.87;;;;;;;;;;10123262;29;20135;-81
2024/01/14 06:18:15;;;;;;;35.40;15.97;;;;;;;;;;10117575;29;20044;-81
2024/01/14 06:23:16;;;;;;;35.07;16.43;;;;;;;;;;10121414;29;20048;-81
2024/01/14 06:28:17;;;;;;;38.47;16.30;;;;;;;;;;10126466;29;20037;-82
2024/01/14 06:33:18;;;;;;;33.47;16.53;;;;;;;;;;10126100;29;20408;-82
2024/01/14 06:38:19;;;;;;;30.03;15.77;;;;;;;;;;10129913;29;20033;-82
2024/01/14 06:43:20;;;;;;;36.90;17.27;;;;;;;;;;10124862;29;20493;-83
2024/01/14 06:48:21;;;;;;;39.50;16.67;;;;;;;;;;10129624;29;20064;-82
2024/01/14 06:53:22;;;;;;;38.77;18.73;;;;;;;;;;10130813;29;20044;-84
2024/01/14 06:58:30;;;;;;;41.73;19.33;;;;;;;;;;10129051;29;20413;-82
2024/01/14 07:03:31;;;;;;;45.93;21.17;;;;;;;;;;10115802;29;20044;-83
2024/01/14 07:08:32;;;;;;;39.17;20.17;;;;;;;;;;10109963;29;20068;-84
2024/01/14 07:13:33;;;;;;;37.60;19.00;;;;;;;;;;10113662;29;20076;-83
2024/01/14 07:18:34;;;;;;;38.07;18.47;;;;;;;;;;10128551;29;20477;-85
2024/01/14 07:23:37;;;;;;;40.67;19.40;;;;;;;;;;10122077;29;20172;-85
2024/01/14 07:28:38;;;;;;;33.77;17.30;;;;;;;;;;10124148;29;20885;-80
2024/01/14 07:33:39;;;;;;;38.23;18.70;;;;;;;;;;10120943;29;20037;-83
2024/01/14 07:38:40;;;;;;;41.23;18.90;;;;;;;;;;10125000;29;20477;-80
2024/01/14 07:43:41;;;;;;;41.10;19.53;;;;;;;;;;10120567;29;20810;-80
2024/01/14 07:48:42;;;;;;;45.50;21.03;;;;;;;;;;10127435;29;20056;-83
2024/01/14 07:53:43;;;;;;;45.10;21.43;;;;;;;;;;10115684;29;20064;-81
2024/01/14 07:58:44;;;;;;;180.63;80.07;;;;;;;;;;10115114;29;20104;-80
2024/01/14 08:03:52;;;;;;;63.33;29.73;;;;;;;;;;10117556;29;20384;-82
2024/01/14 08:08:53;;;;;;;61.63;30.00;;;;;;;;;;10099565;29;20036;-81
2024/01/14 08:13:55;;;;;;;75.03;33.57;;;;;;;;;;10122554;29;20044;-80
2024/01/14 08:18:56;;;;;;;51.10;24.40;;;;;;;;;;10112757;29;20044;-82
2024/01/14 08:24:03;;;;;;;49.83;23.70;;;;;;;;;;10124323;29;20052;-79
2024/01/14 08:29:05;;;;;;;47.83;23.90;;;;;;;;;;10120531;29;20366;-80
2024/01/14 08:34:06;;;;;;;46.70;21.73;;;;;;;;;;10122753;29;20068;-80
2024/01/14 08:39:07;;;;;;;52.03;24.83;;;;;;;;;;10122673;29;20025;-80
2024/01/14 08:44:10;;;;;;;47.50;24.33;;;;;;;;;;10125970;29;20040;-80
2024/01/14 08:49:12;;;;;;;46.20;23.73;;;;;;;;;;10121939;29;20068;-83
2024/01/14 08:54:14;;;;;;;49.53;22.70;;;;;;;;;;10124599;29;20140;-80
2024/01/14 08:59:15;;;;;;;52.30;24.97;;;;;;;;;;10123040;29;20400;-81
2024/01/14 09:04:16;;;;;;;47.07;23.33;;;;;;;;;;10117781;29;20489;-81
2024/01/14 09:09:17;;;;;;;43.80;22.80;;;;;;;;;;10125330;29;20070;-81
2024/01/14 09:14:18;;;;;;;56.03;26.73;;;;;;;;;;10124745;29;20036;-81
2024/01/14 09:19:19;;;;;;;47.63;22.47;;;;;;;;;;10124398;29;20043;-81
2024/01/14 09:24:20;;;;;;;59.27;27.57;;;;;;;;;;10126077;29;20032;-83
2024/01/14 09:29:22;;;;;;;48.70;25.07;;;;;;;;;;10123335;29;20060;-81
2024/01/14 09:34:23;;;;;;;48.60;25.27;;;;;;;;;;10123931;29;20541;-81
2024/01/14 09:39:24;;;;;;;42.27;21.07;;;;;;;;;;10119958;29;20107;-81
2024/01/14 09:44:25;;;;;;;37.40;19.63;;;;;;;;;;10109321;29;21742;-82
2024/01/14 09:49:26;;;;;;;36.50;19.13;;;;;;;;;;10095932;29;20041;-80
2024/01/14 09:54:31;;;;;;;38.73;20.20;;;;;;;;;;10114214;29;20564;-81
2024/01/14 09:59:33;;;;;;;41.00;20.33;;;;;;;;;;10100571;29;20032;-80
2024/01/14 10:04:34;;;;;;;37.07;18.77;;;;;;;;;;10119793;29;20460;-81
2024/01/14 10:09:36;;;;;;;43.13;18.43;;;;;;;;;;10124247;29;20043;-81
2024/01/14 10:14:37;;;;;;;31.97;17.20;;;;;;;;;;10125057;29;20072;-81
2024/01/14 10:19:39;;;;;;;32.13;16.73;;;;;;;;;;10115524;29;20548;-81
2024/01/14 10:24:40;;;;;;;37.23;18.53;;;;;;;;;;10112462;29;20467;-80
2024/01/14 10:29:41;;;;;;;38.13;18.40;;;;;;;;;;10118653;29;20844;-82
2024/01/14 10:34:43;;;;;;;37.50;19.00;;;;;;;;;;10128295;29;20128;-82
2024/01/14 10:39:44;;;;;;;45.23;20.80;;;;;;;;;;10115964;29;20024;-81
2024/01/14 10:44:45;;;;;;;38.47;18.83;;;;;;;;;;10125325;29;20135;-82
2024/01/14 10:49:49;;;;;;;39.23;20.07;;;;;;;;;;10101142;29;20575;-83
2024/01/14 10:54:56;;;;;;;33.20;15.07;;;;;;;;;;10130067;29;20024;-83
2024/01/14 10:59:58;;;;;;;30.00;16.10;;;;;;;;;;10119814;29;20033;-82
2024/01/14 11:05:16;;;;;;;36.83;17.10;;;;;;;;;;10109003;29;20934;-82
2024/01/14 11:10:17;;;;;;;30.93;14.77;;;;;;;;;;10094308;29;20044;-82
2024/01/14 11:15:18;;;;;;;37.20;18.10;;;;;;;;;;10113530;29;20036;-83
2024/01/14 11:20:34;;;;;;;31.27;16.13;;;;;;;;;;10107154;29;20045;-84
2024/01/14 11:25:36;;;;;;;34.33;14.90;;;;;;;;;;10120491;29;20544;-82
2024/01/14 11:30:59;;;;;;;33.80;14.60;;;;;;;;;;10104330;29;20032;-83
2024/01/14 11:41:44;;;;;;;31.70;15.03;;;;;;;;;;10125223;29;20036;-83
2024/01/14 11:46:52;;;;;;;30.97;16.00;;;;;;;;;;10108765;29;20072;-82
2024/01/14 11:52:09;;;;;;;24.80;13.03;;;;;;;;;;10121234;29;20059;-85
2024/01/14 11:57:26;;;;;;;25.67;11.43;;;;;;;;;;10120788;29;20430;-81
2024/01/14 12:02:27;;;;;;;;;;;;;;;;;;10119802;29;20427;-83
2024/01/14 12:07:28;;;;;;;22.73;11.47;;;;;;;;;;10105500;29;19915;-80
2024/01/14 12:12:30;;;;;;;23.03;12.13;;;;;;;;;;10118283;29;20073;-83
2024/01/14 12:17:31;;;;;;;38.37;18.07;;;;;;;;;;10123931;29;20037;-83
2024/01/14 12:22:32;;;;;;;35.80;18.87;;;;;;;;;;10126696;29;20032;-81
2024/01/14 12:27:41;;;;;;;46.73;22.27;;;;;;;;;;10122232;29;20397;-83
2024/01/14 12:32:42;;;;;;;36.03;19.10;;;;;;;;;;10122482;29;20178;-81
2024/01/14 12:37:43;;;;;;;38.90;19.13;;;;;;;;;;10109453;29;20039;-79
2024/01/14 12:42:44;;;;;;;46.10;22.67;;;;;;;;;;10127008;29;20060;-81
2024/01/14 12:48:27;;;;;;;44.87;22.70;;;;;;;;;;10109329;29;20220;-80
2024/01/14 12:53:35;;;;;;;44.80;22.27;;;;;;;;;;10122441;29;20107;-81
2024/01/14 12:58:36;;;;;;;46.13;21.63;;;;;;;;;;10105690;29;20033;-79
2024/01/14 13:03:39;;;;;;;48.50;23.43;;;;;;;;;;10107975;29;20573;-80
2024/01/14 13:09:17;;;;;;;47.73;24.60;;;;;;;;;;10123082;29;20059;-83
2024/01/14 13:14:28;;;;;;;40.27;19.57;;;;;;;;;;10106813;29;20619;-81
2024/01/14 13:25:37;;;;;;;36.97;20.07;;;;;;;;;;10123650;29;20041;-80
2024/01/14 13:31:00;;;;;;;39.17;20.40;;;;;;;;;;10105739;29;20041;-79
2024/01/14 13:36:01;;;;;;;44.13;22.30;;;;;;;;;;10120461;29;20068;-84
2024/01/14 13:41:03;;;;;;;43.00;21.60;;;;;;;;;;10123302;29;20024;-78
2024/01/14 13:46:13;;;;;;;52.87;23.23;;;;;;;;;;10114461;29;20154;-78
2024/01/14 14:02:19;;;;;;;42.83;20.80;;;;;;;;;;10119202;29;20409;-81
2024/01/14 14:07:21;;;;;;;41.23;20.53;;;;;;;;;;10109465;29;20040;-82
2024/01/14 14:12:23;;;;;;;41.53;21.20;;;;;;;;;;10110835;29;20132;-86
2024/01/14 14:28:42;;;;;;;48.50;23.20;;;;;;;;;;10116480;29;20541;-80
2024/01/14 14:33:52;;;;;;;45.33;21.13;;;;;;;;;;10122462;29;20064;-84
2024/01/14 14:44:56;;;;;;;54.30;25.50;;;;;;;;;;10116135;29;20056;-83
2024/01/14 14:50:08;;;;;;;43.20;21.67;;;;;;;;;;10108860;29;20120;-80
2024/01/14 14:55:09;;;;;;;38.03;17.93;;;;;;;;;;10113739;29;20080;-82
2024/01/14 15:00:35;;;;;;;39.80;19.90;;;;;;;;;;10108451;29;20033;-83
2024/01/14 15:05:36;;;;;;;43.30;21.50;;;;;;;;;;10126262;29;20040;-81
2024/01/14 15:22:38;;;;;;;45.70;21.67;;;;;;;;;;10095640;29;20084;-84
2024/01/14 15:50:07;;;;;;;52.03;23.50;;;;;;;;;;10343657;23;20235;-82
2024/01/14 15:55:11;;;;;;;49.30;24.83;;;;;;;;;;10098185;29;20040;-84
2024/01/14 16:00:21;;;;;;;44.10;22.57;;;;;;;;;;10111558;29;20048;-81
2024/01/14 16:05:44;;;;;;;40.37;20.63;;;;;;;;;;10122416;29;20453;-81
2024/01/14 16:10:47;;;;;;;39.70;18.63;;;;;;;;;;10106721;29;20029;-82
2024/01/14 16:21:28;;;;;;;33.87;18.43;;;;;;;;;;10114578;29;20036;-82
2024/01/14 16:32:26;;;;;;;40.97;19.53;;;;;;;;;;10122798;29;20044;-84
2024/01/14 16:37:27;;;;;;;40.37;19.70;;;;;;;;;;10108151;29;20445;-82
2024/01/14 16:48:37;;;;;;;38.93;20.67;;;;;;;;;;10122417;29;20524;-82
2024/01/14 17:00:26;;;;;;;45.83;23.37;;;;;;;;;;10112162;29;20084;-80
2024/01/14 17:05:34;;;;;;;54.50;25.67;;;;;;;;;;10109992;29;20052;-83
2024/01/14 17:10:41;;;;;;;53.60;25.70;;;;;;;;;;10105816;29;20045;-83
2024/01/14 17:15:44;;;;;;;51.67;27.33;;;;;;;;;;10122535;29;20021;-83
2024/01/14 17:20:45;;;;;;;55.40;28.00;;;;;;;;;;10103838;29;20040;-81
2024/01/14 17:25:46;;;;;;;56.23;28.63;;;;;;;;;;10120243;29;20040;-77
2024/01/14 17:30:48;;;;;;;59.30;29.30;;;;;;;;;;10123545;29;20045;-79
2024/01/14 17:35:49;;;;;;;56.10;27.97;;;;;;;;;;10119883;29;20036;-81
2024/01/14 17:40:50;;;;;;;62.00;30.73;;;;;;;;;;10128691;29;20067;-80
2024/01/14 17:45:51;;;;;;;51.20;26.77;;;;;;;;;;10135438;29;20790;-80
2024/01/14 17:50:52;;;;;;;54.97;27.83;;;;;;;;;;10121452;29;20037;-81
2024/01/14 17:55:53;;;;;;;51.07;23.87;;;;;;;;;;10123947;29;20029;-82
2024/01/14 18:00:54;;;;;;;46.87;22.37;;;;;;;;;;10121925;29;20545;-80
2024/01/14 18:05:55;;;;;;;53.30;26.93;;;;;;;;;;10123984;29;20100;-79
2024/01/14 18:10:56;;;;;;;61.70;28.40;;;;;;;;;;10119349;29;20049;-82
2024/01/14 18:16:00;;;;;;;115.97;48.23;;;;;;;;;;10119047;29;20040;-80
2024/01/14 18:21:03;;;;;;;100.93;43.30;;;;;;;;;;10110682;29;20038;-80
2024/01/14 18:26:04;;;;;;;65.00;31.27;;;;;;;;;;10126850;29;20404;-78
2024/01/14 18:31:12;;;;;;;54.83;25.57;;;;;;;;;;10125606;29;20888;-82
2024/01/14 18:36:13;;;;;;;60.63;27.80;;;;;;;;;;10124139;29;20705;-78
2024/01/14 18:41:14;;;;;;;50.70;26.27;;;;;;;;;;10114141;29;20070;-79
2024/01/14 18:46:15;;;;;;;53.53;24.63;;;;;;;;;;10113571;29;20144;-79
2024/01/14 18:51:16;;;;;;;49.07;24.00;;;;;;;;;;10122712;29;20410;-81
2024/01/14 18:56:18;;;;;;;53.10;23.37;;;;;;;;;;10120758;29;20037;-80
2024/01/14 19:01:19;;;;;;;47.80;22.77;;;;;;;;;;10132706;29;20043;-81
2024/01/14 19:06:20;;;;;;;55.23;24.07;;;;;;;;;;10123338;29;20159;-79
2024/01/14 19:11:22;;;;;;;67.87;29.80;;;;;;;;;;10120394;29;20070;-79
2024/01/14 19:16:24;;;;;;;59.07;26.07;;;;;;;;;;10116804;29;20060;-80
2024/01/14 19:21:25;;;;;;;51.73;25.33;;;;;;;;;;10106260;29;20459;-82
2024/01/14 19:26:33;;;;;;;80.83;40.10;;;;;;;;;;10097591;29;20095;-78
2024/01/14 19:31:35;;;;;;;101.33;46.00;;;;;;;;;;10118419;29;20064;-78
2024/01/14 19:36:37;;;;;;;77.47;37.60;;;;;;;;;;10095847;29;20055;-78
2024/01/14 19:41:39;;;;;;;128.97;65.37;;;;;;;;;;10119695;29;20057;-78
2024/01/14 19:46:41;;;;;;;73.93;36.50;;;;;;;;;;10125833;29;20426;-77
2024/01/14 19:51:42;;;;;;;67.30;30.30;;;;;;;;;;10122180;29;20065;-78
2024/01/14 19:56:46;;;;;;;69.47;33.20;;;;;;;;;;10128716;29;20068;-79
2024/01/14 20:01:54;;;;;;;55.80;26.27;;;;;;;;;;10130380;29;20172;-77
2024/01/14 20:06:55;;;;;;;57.77;26.97;;;;;;;;;;10119645;29;20035;-80
2024/01/14 20:11:59;;;;;;;49.03;23.77;;;;;;;;;;10128326;29;20024;-78
2024/01/14 20:17:00;;;;;;;58.27;27.60;;;;;;;;;;10128024;29;20100;-84
2024/01/14 20:22:02;;;;;;;48.97;23.20;;;;;;;;;;10121244;29;20032;-79
2024/01/14 20:27:04;;;;;;;53.23;24.27;;;;;;;;;;10106544;29;20468;-83
2024/01/14 20:32:05;;;;;;;51.80;25.50;;;;;;;;;;10124176;29;20044;-79
2024/01/14 20:37:07;;;;;;;46.70;23.53;;;;;;;;;;10120909;29;20036;-79
2024/01/14 20:42:09;;;;;;;53.40;24.50;;;;;;;;;;10117109;29;20504;-78
2024/01/14 20:47:10;;;;;;;49.33;22.70;;;;;;;;;;10118380;29;20052;-80
2024/01/14 20:52:12;;;;;;;50.93;21.80;;;;;;;;;;10124550;29;20033;-81
2024/01/14 20:57:13;;;;;;;45.93;20.97;;;;;;;;;;10116364;29;20505;-76
2024/01/14 21:02:14;;;;;;;42.47;21.27;;;;;;;;;;10122957;29;20040;-76
2024/01/14 21:07:18;;;;;;;48.53;21.97;;;;;;;;;;10121333;29;20049;-78
2024/01/14 21:12:19;;;;;;;44.20;20.20;;;;;;;;;;10119342;29;20045;-81
2024/01/14 21:17:20;;;;;;;41.70;20.20;;;;;;;;;;10121408;29;20045;-81
2024/01/14 21:22:21;;;;;;;39.77;19.00;;;;;;;;;;10113134;29;20085;-78
2024/01/14 21:27:23;;;;;;;63.10;26.60;;;;;;;;;;10120779;29;20036;-78
2024/01/14 21:32:24;;;;;;;152.30;53.43;;;;;;;;;;10111679;29;20099;-82
2024/01/14 21:37:25;;;;;;;294.07;85.03;;;;;;;;;;10107710;29;20029;-82
2024/01/14 21:42:26;;;;;;;97.47;37.30;;;;;;;;;;10114026;29;20052;-78
2024/01/14 21:47:28;;;;;;;84.43;33.43;;;;;;;;;;10127011;29;20040;-80
2024/01/14 21:52:29;;;;;;;54.27;23.23;;;;;;;;;;10131953;23;20053;-81
2024/01/14 21:57:30;;;;;;;60.13;23.10;;;;;;;;;;10114297;29;20495;-78
2024/01/14 22:02:31;;;;;;;50.93;22.20;;;;;;;;;;10113372;29;20044;-81
2024/01/14 22:07:32;;;;;;;47.60;21.03;;;;;;;;;;10119238;29;20141;-77
2024/01/14 22:12:33;;;;;;;49.47;21.47;;;;;;;;;;10107799;29;20840;-78
2024/01/14 22:17:34;;;;;;;46.53;18.60;;;;;;;;;;10116533;29;20032;-82
2024/01/14 22:22:35;;;;;;;56.13;20.47;;;;;;;;;;10117472;29;20822;-82
2024/01/14 22:27:36;;;;;;;41.77;16.17;;;;;;;;;;10117592;29;20531;-78
2024/01/14 22:32:37;;;;;;;43.50;18.10;;;;;;;;;;10106372;29;20506;-77
2024/01/14 22:37:38;;;;;;;43.67;17.17;;;;;;;;;;10121825;29;20168;-79
2024/01/14 22:42:41;;;;;;;56.80;21.23;;;;;;;;;;10132901;29;20110;-79
2024/01/14 22:47:42;;;;;;;51.00;19.10;;;;;;;;;;10129248;29;20036;-78
2024/01/14 22:52:43;;;;;;;47.40;20.07;;;;;;;;;;10127999;29;20060;-79
2024/01/14 22:57:44;;;;;;;36.37;15.73;;;;;;;;;;10150609;29;20441;-79
2024/01/14 23:02:45;;;;;;;33.27;15.73;;;;;;;;;;10161289;29;20044;-80
2024/01/14 23:07:46;;;;;;;33.33;13.77;;;;;;;;;;10158348;29;20042;-82
2024/01/14 23:12:47;;;;;;;31.20;14.67;;;;;;;;;;10165647;29;20500;-84
2024/01/14 23:17:48;;;;;;;31.97;14.63;;;;;;;;;;10168590;29;20131;-82
2024/01/14 23:22:49;;;;;;;35.97;15.67;;;;;;;;;;10166823;29;20071;-83
2024/01/14 23:27:50;;;;;;;34.13;16.57;;;;;;;;;;10168088;29;20032;-80
2024/01/14 23:32:51;;;;;;;32.67;14.93;;;;;;;;;;10164272;29;20043;-80
2024/01/14 23:37:52;;;;;;;34.13;15.27;;;;;;;;;;10167087;29;20134;-81
2024/01/14 23:42:53;;;;;;;39.83;16.47;;;;;;;;;;10166903;29;20046;-81
2024/01/14 23:47:54;;;;;;;33.90;15.87;;;;;;;;;;10166041;29;20413;-83
2024/01/14 23:52:55;;;;;;;39.33;16.97;;;;;;;;;;10162537;29;20064;-79
2024/01/14 23:57:57;;;;;;;29.30;13.57;;;;;;;;;;10158824;29;20091;-81
